createdAt,value
2023-02-17T00:00:19.324Z,99257.19
2023-02-17T00:02:46.155Z,99256.97
2023-02-17T00:05:13.010Z,99254.38
2023-02-17T00:07:39.752Z,99258.75
2023-02-17T00:10:07.505Z,99253.31
2023-02-17T00:12:34.235Z,99252.47
2023-02-17T00:15:00.888Z,99252.81
2023-02-17T00:17:27.534Z,99251.78
2023-02-17T00:19:55.680Z,99251.81
2023-02-17T00:22:22.340Z,99254.53
2023-02-17T00:24:48.958Z,99257.22
2023-02-17T00:27:15.614Z,99260.91
2023-02-17T00:29:42.294Z,99258.34
2023-02-17T00:32:10.432Z,99248.59
2023-02-17T00:34:37.886Z,99251.50
2023-02-17T00:37:05.098Z,99250.59
2023-02-17T00:39:32.872Z,99245.44
2023-02-17T00:41:59.522Z,99257.59
2023-02-17T00:44:29.171Z,99247.13
2023-02-17T00:46:55.845Z,99241.91
2023-02-17T00:49:25.272Z,99242.06
2023-02-17T00:51:52.781Z,99237.44
2023-02-17T00:54:19.902Z,99233.91
2023-02-17T00:56:46.846Z,99234.13
2023-02-17T00:59:13.811Z,99241.78
2023-02-17T01:01:40.660Z,99239.16
2023-02-17T01:04:09.688Z,99240.81
2023-02-17T01:06:38.605Z,99250.59
2023-02-17T01:09:09.078Z,99258.78
2023-02-17T01:11:36.341Z,99248.16
2023-02-17T01:14:06.291Z,99259.69
2023-02-17T01:16:36.553Z,99261.47
2023-02-17T01:19:05.231Z,99265.81
2023-02-17T01:21:32.776Z,99264.91
2023-02-17T01:24:02.276Z,99264.81
2023-02-17T01:26:31.017Z,99264.84
2023-02-17T01:28:58.297Z,99259.53
2023-02-17T01:31:27.126Z,99257.06
2023-02-17T01:33:57.188Z,99246.34
2023-02-17T01:36:24.497Z,99246.41
2023-02-17T01:38:51.242Z,99242.81
2023-02-17T01:41:20.477Z,99239.25
2023-02-17T01:44:07.640Z,99236.63
2023-02-17T01:46:39.696Z,99235.75
2023-02-17T01:49:19.718Z,99225.31
2023-02-17T01:51:52.334Z,99231.28
2023-02-17T01:54:27.251Z,99225.25
2023-02-17T01:56:57.323Z,99225.13
2023-02-17T01:59:24.307Z,99220.78
2023-02-17T02:01:55.316Z,99217.03
2023-02-17T02:04:25.969Z,99219.97
2023-02-17T02:06:52.972Z,99215.66
2023-02-17T02:09:32.559Z,99211.25
2023-02-17T02:12:00.198Z,99207.91
2023-02-17T02:14:32.112Z,99208.84
2023-02-17T02:17:12.602Z,99205.19
2023-02-17T02:19:55.936Z,99206.06
2023-02-17T02:22:47.237Z,99194.75
2023-02-17T02:25:13.826Z,99192.91
2023-02-17T02:28:05.435Z,99190.22
2023-02-17T02:30:58.231Z,99181.47
2023-02-17T02:33:31.019Z,99172.47
2023-02-17T02:36:11.484Z,99183.22
2023-02-17T02:38:57.611Z,99172.75
2023-02-17T02:41:38.036Z,99171.94
2023-02-17T02:44:07.606Z,99157.78
2023-02-17T02:46:34.356Z,99162.28
2023-02-17T02:49:02.704Z,99165.88
2023-02-17T02:51:31.271Z,99171.25
2023-02-17T02:54:16.508Z,99167.66
2023-02-17T02:57:10.035Z,99158.91
2023-02-17T02:59:43.695Z,99163.19
2023-02-17T03:02:34.723Z,99149.25
2023-02-17T03:05:37.069Z,99162.59
2023-02-17T03:08:11.164Z,99147.44
2023-02-17T03:10:46.932Z,99156.09
2023-02-17T03:13:13.847Z,99160.59
2023-02-17T03:15:41.206Z,99156.31
2023-02-17T03:18:07.895Z,99153.53
2023-02-17T03:20:43.686Z,99159.72
2023-02-17T03:23:10.371Z,99146.47
2023-02-17T03:25:37.047Z,99156.28
2023-02-17T03:28:04.466Z,99150.16
2023-02-17T03:30:31.237Z,99155.28
2023-02-17T03:32:57.939Z,99141.16
2023-02-17T03:35:24.515Z,99137.66
2023-02-17T03:37:51.149Z,99145.69
2023-02-17T03:40:17.962Z,99145.72
2023-02-17T03:42:44.759Z,99150.97
2023-02-17T03:45:11.417Z,99143.03
2023-02-17T03:47:38.039Z,99143.03
2023-02-17T03:50:05.410Z,99144.72
2023-02-17T03:52:32.053Z,99138.59
2023-02-17T03:54:58.686Z,99149.81
2023-02-17T03:57:25.369Z,99151.75
2023-02-17T03:59:52.016Z,99153.56
2023-02-17T04:02:18.647Z,99155.25
2023-02-17T04:04:45.305Z,99156.09
2023-02-17T04:07:11.958Z,99160.44
2023-02-17T04:09:38.780Z,99154.16
2023-02-17T04:12:05.512Z,99169.31
2023-02-17T04:14:32.286Z,99162.22
2023-02-17T04:16:58.949Z,99164.81
2023-02-17T04:19:25.613Z,99161.28
2023-02-17T04:21:52.448Z,99167.34
2023-02-17T04:24:19.100Z,99173.38
2023-02-17T04:26:45.751Z,99176.94
2023-02-17T04:29:12.369Z,99180.53
2023-02-17T04:31:39.077Z,99174.56
2023-02-17T04:34:05.687Z,99177.00
2023-02-17T04:36:33.052Z,99179.53
2023-02-17T04:38:59.679Z,99183.09
2023-02-17T04:41:26.321Z,99168.94
2023-02-17T04:43:52.986Z,99179.75
2023-02-17T04:46:19.644Z,99181.28
2023-02-17T04:48:46.303Z,99175.19
2023-02-17T04:51:12.988Z,99177.78
2023-02-17T04:53:40.218Z,99168.94
2023-02-17T04:56:07.291Z,99177.03
2023-02-17T04:58:34.117Z,99173.31
2023-02-17T05:01:01.114Z,99183.13
2023-02-17T05:03:27.829Z,99181.28
2023-02-17T05:05:54.473Z,99191.06
2023-02-17T05:08:21.122Z,99196.44
2023-02-17T05:10:48.062Z,99192.91
2023-02-17T05:13:14.702Z,99194.56
2023-02-17T05:15:43.878Z,99199.78
2023-02-17T05:18:11.238Z,99196.25
2023-02-17T05:20:37.954Z,99207.84
2023-02-17T05:23:04.675Z,99198.81
2023-02-17T05:25:31.417Z,99192.00
2023-02-17T05:27:58.076Z,99191.22
2023-02-17T05:30:24.690Z,99191.19
2023-02-17T05:32:51.316Z,99193.78
2023-02-17T05:35:18.031Z,99187.47
2023-02-17T05:37:44.671Z,99192.81
2023-02-17T05:40:11.929Z,99185.06
2023-02-17T05:42:38.620Z,99189.19
2023-02-17T05:45:05.524Z,99199.00
2023-02-17T05:47:32.254Z,99198.22
2023-02-17T05:49:58.868Z,99189.31
2023-02-17T05:52:25.522Z,99198.97
2023-02-17T05:54:52.150Z,99201.84
2023-02-17T05:57:18.823Z,99204.31
2023-02-17T05:59:45.444Z,99204.47
2023-02-17T06:02:12.073Z,99204.44
2023-02-17T06:04:38.834Z,99214.06
2023-02-17T06:07:05.593Z,99206.97
2023-02-17T06:09:32.290Z,99206.91
2023-02-17T06:11:59.069Z,99210.59
2023-02-17T06:14:25.840Z,99215.72
2023-02-17T06:16:53.683Z,99219.28
2023-02-17T06:19:20.336Z,99220.13
2023-02-17T06:21:47.083Z,99210.44
2023-02-17T06:24:13.742Z,99209.38
2023-02-17T06:26:40.415Z,99208.69
2023-02-17T06:29:07.361Z,99212.09
2023-02-17T06:31:34.272Z,99211.97
2023-02-17T06:34:01.047Z,99218.28
2023-02-17T06:36:27.766Z,99224.41
2023-02-17T06:38:54.377Z,99220.03
2023-02-17T06:41:20.992Z,99227.31
2023-02-17T06:43:47.605Z,99233.22
2023-02-17T06:46:14.305Z,99224.50
2023-02-17T06:48:40.944Z,99236.00
2023-02-17T06:51:07.580Z,99239.47
2023-02-17T06:53:34.282Z,99242.06
2023-02-17T06:56:00.948Z,99256.13
2023-02-17T06:58:27.648Z,99252.59
2023-02-17T07:00:54.374Z,99263.19
2023-02-17T07:03:21.100Z,99261.50
2023-02-17T07:05:47.746Z,99279.03
2023-02-17T07:08:14.570Z,99278.34
2023-02-17T07:10:41.459Z,99272.22
2023-02-17T07:13:08.482Z,99275.47
2023-02-17T07:15:35.538Z,99275.63
2023-02-17T07:18:03.036Z,99277.31
2023-02-17T07:20:31.914Z,99281.69
2023-02-17T07:22:59.981Z,99282.63
2023-02-17T07:25:26.818Z,99279.06
2023-02-17T07:27:53.479Z,99279.97
2023-02-17T07:30:21.150Z,99272.84
2023-02-17T07:32:47.770Z,99280.88
2023-02-17T07:35:14.398Z,99282.63
2023-02-17T07:37:41.037Z,99288.75
2023-02-17T07:40:07.984Z,99277.41
2023-02-17T07:42:34.725Z,99272.00
2023-02-17T07:45:05.855Z,99268.53
2023-02-17T07:47:33.227Z,99271.03
2023-02-17T07:49:59.880Z,99266.63
2023-02-17T07:52:26.595Z,99271.03
2023-02-17T07:54:53.238Z,99285.06
2023-02-17T07:57:19.915Z,99291.22
2023-02-17T07:59:47.424Z,99300.75
2023-02-17T08:02:14.272Z,99299.97
2023-02-17T08:04:40.909Z,99294.59
2023-02-17T08:07:07.723Z,99294.91
2023-02-17T08:09:53.190Z,99301.72
2023-02-17T08:12:39.837Z,99293.75
2023-02-17T08:15:10.205Z,99305.47
2023-02-17T08:17:37.046Z,99303.47
2023-02-17T08:20:09.054Z,99303.53
2023-02-17T08:22:36.677Z,99298.22
2023-02-17T08:25:06.050Z,99306.16
2023-02-17T08:27:32.969Z,99303.50
2023-02-17T08:29:59.712Z,99292.22
2023-02-17T08:32:26.498Z,99293.66
2023-02-17T08:34:56.720Z,99299.84
2023-02-17T08:37:23.416Z,99294.78
2023-02-17T08:39:50.085Z,99299.97
2023-02-17T08:42:17.901Z,99312.16
2023-02-17T08:44:44.589Z,99311.38
2023-02-17T08:47:11.504Z,99314.19
2023-02-17T08:49:40.867Z,99295.47
2023-02-17T08:52:10.636Z,99295.66
2023-02-17T08:54:38.329Z,99292.09
2023-02-17T08:57:08.290Z,99298.31
2023-02-17T08:59:34.935Z,99300.09
2023-02-17T09:02:01.633Z,99293.88
2023-02-17T09:04:31.258Z,99299.22
2023-02-17T09:06:58.594Z,99291.28
2023-02-17T09:09:26.948Z,99302.63
2023-02-17T09:11:55.803Z,99304.41
2023-02-17T09:14:24.004Z,99315.72
2023-02-17T09:16:51.911Z,99310.66
2023-02-17T09:19:19.215Z,99312.47
2023-02-17T09:21:46.050Z,99323.00
2023-02-17T09:24:12.794Z,99317.72
2023-02-17T09:26:39.498Z,99326.63
2023-02-17T09:29:06.292Z,99316.53
2023-02-17T09:31:35.321Z,99313.16
2023-02-17T09:34:02.842Z,99314.88
2023-02-17T09:36:31.824Z,99311.41
2023-02-17T09:38:59.012Z,99316.56
2023-02-17T09:41:41.225Z,99307.50
2023-02-17T09:44:17.638Z,99315.59
2023-02-17T09:47:06.962Z,99309.50
2023-02-17T09:49:45.430Z,99313.97
2023-02-17T09:52:29.585Z,99317.66
2023-02-17T09:55:08.178Z,99323.72
2023-02-17T09:57:41.502Z,99326.13
2023-02-17T10:00:23.570Z,99328.88
2023-02-17T10:03:03.395Z,99327.28
2023-02-17T10:05:40.958Z,99328.75
2023-02-17T10:08:18.993Z,99333.22
2023-02-17T10:11:01.830Z,99329.63
2023-02-17T10:13:32.244Z,99322.69
2023-02-17T10:16:07.041Z,99332.25
2023-02-17T10:18:49.476Z,99332.28
2023-02-17T10:21:25.590Z,99334.84
2023-02-17T10:23:52.635Z,99334.00
2023-02-17T10:26:22.370Z,99329.00
2023-02-17T10:28:49.090Z,99332.22
2023-02-17T10:31:26.264Z,99333.19
2023-02-17T10:34:05.001Z,99327.84
2023-02-17T10:37:01.009Z,99335.66
2023-02-17T10:39:33.673Z,99334.75
2023-02-17T10:42:01.643Z,99347.75
2023-02-17T10:44:28.574Z,99342.50
2023-02-17T10:46:55.300Z,99339.84
2023-02-17T10:49:27.057Z,99338.97
2023-02-17T10:51:53.691Z,99341.72
2023-02-17T10:54:43.570Z,99341.44
2023-02-17T10:57:13.272Z,99343.47
2023-02-17T10:59:42.682Z,99339.00
2023-02-17T11:02:43.303Z,99340.63
2023-02-17T11:05:29.011Z,99351.28
2023-02-17T11:08:00.218Z,99339.66
2023-02-17T11:10:36.317Z,99347.91
2023-02-17T11:13:19.276Z,99345.72
2023-02-17T11:15:47.681Z,99338.94
2023-02-17T11:18:28.953Z,99345.91
2023-02-17T11:21:08.692Z,99344.91
2023-02-17T11:23:40.364Z,99335.19
2023-02-17T11:26:17.022Z,99332.75
2023-02-17T11:28:43.665Z,99335.28
2023-02-17T11:31:31.109Z,99330.09
2023-02-17T11:33:57.883Z,99333.50
2023-02-17T11:36:29.276Z,99327.41
2023-02-17T11:38:57.317Z,99316.63
2023-02-17T11:41:24.186Z,99317.69
2023-02-17T11:43:56.998Z,99315.75
2023-02-17T11:46:36.637Z,99317.69
2023-02-17T11:49:41.904Z,99319.84
2023-02-17T11:52:30.426Z,99314.63
2023-02-17T11:55:15.362Z,99313.19
2023-02-17T11:58:06.056Z,99315.47
2023-02-17T12:00:45.352Z,99318.44
2023-02-17T12:03:39.563Z,99318.16
2023-02-17T12:06:21.229Z,99319.75
2023-02-17T12:09:07.758Z,99326.84
2023-02-17T12:11:43.349Z,99322.25
2023-02-17T12:14:30.984Z,99317.03
2023-02-17T12:17:13.299Z,99314.44
2023-02-17T12:19:58.789Z,99314.44
2023-02-17T12:22:42.584Z,99314.03
2023-02-17T12:25:39.945Z,99316.00
2023-02-17T12:28:06.502Z,99318.41
2023-02-17T12:30:39.428Z,99312.16
2023-02-17T12:33:12.279Z,99322.19
2023-02-17T12:35:57.676Z,99308.00
2023-02-17T12:38:27.767Z,99310.44
2023-02-17T12:41:31.013Z,99302.75
2023-02-17T12:44:07.317Z,99300.97
2023-02-17T12:46:46.321Z,99301.97
2023-02-17T12:49:35.825Z,99300.66
2023-02-17T12:52:08.341Z,99305.97
2023-02-17T12:54:41.903Z,99314.84
2023-02-17T12:57:29.957Z,99305.69
2023-02-17T12:59:57.608Z,99307.50
2023-02-17T13:02:26.147Z,99309.22
2023-02-17T13:04:55.750Z,99302.84
2023-02-17T13:07:44.185Z,99300.13
2023-02-17T13:10:25.825Z,99293.63
2023-02-17T13:13:27.189Z,99282.09
2023-02-17T13:16:12.289Z,99291.22
2023-02-17T13:18:41.708Z,99281.09
2023-02-17T13:21:24.956Z,99285.69
2023-02-17T13:24:01.411Z,99285.91
2023-02-17T13:26:30.032Z,99288.09
2023-02-17T13:29:23.929Z,99297.84
2023-02-17T13:31:53.559Z,99309.84
2023-02-17T13:34:36.948Z,99304.59
2023-02-17T13:37:23.798Z,99295.50
2023-02-17T13:39:50.968Z,99302.69
2023-02-17T13:42:36.070Z,99296.91
2023-02-17T13:45:14.115Z,99301.25
2023-02-17T13:47:42.029Z,99299.25
2023-02-17T13:50:30.817Z,99295.88
2023-02-17T13:52:58.201Z,99297.38
2023-02-17T13:55:25.467Z,99292.53
2023-02-17T13:57:57.777Z,99293.13
2023-02-17T14:00:29.978Z,99298.44
2023-02-17T14:03:11.757Z,99290.78
2023-02-17T14:05:43.798Z,99286.94
2023-02-17T14:08:19.716Z,99297.72
2023-02-17T14:10:46.542Z,99288.56
2023-02-17T14:13:14.109Z,99277.56
2023-02-17T14:15:58.659Z,99272.78
2023-02-17T14:18:38.642Z,99278.38
2023-02-17T14:21:24.149Z,99284.19
2023-02-17T14:23:54.608Z,99277.34
2023-02-17T14:26:43.962Z,99271.59
2023-02-17T14:29:13.383Z,99288.94
2023-02-17T14:31:52.101Z,99281.81
2023-02-17T14:34:27.966Z,99283.81
2023-02-17T14:36:55.899Z,99276.97
2023-02-17T14:39:22.495Z,99274.84
2023-02-17T14:41:49.172Z,99277.19
2023-02-17T14:44:15.892Z,99276.97
2023-02-17T14:46:42.568Z,99275.13
2023-02-17T14:49:09.217Z,99282.31
2023-02-17T14:51:37.555Z,99267.06
2023-02-17T14:54:16.279Z,99269.19
2023-02-17T14:57:07.481Z,99261.31
2023-02-17T14:59:34.198Z,99263.88
2023-02-17T15:02:00.894Z,99256.88
2023-02-17T15:04:27.627Z,99263.03
2023-02-17T15:06:54.786Z,99273.69
2023-02-17T15:09:30.691Z,99263.97
2023-02-17T15:11:58.450Z,99264.38
2023-02-17T15:14:25.151Z,99272.59
2023-02-17T15:16:52.194Z,99264.44
2023-02-17T15:19:18.979Z,99270.69
2023-02-17T15:21:49.432Z,99275.97
2023-02-17T15:24:22.965Z,99273.28
2023-02-17T15:26:49.780Z,99275.00
2023-02-17T15:29:21.937Z,99277.63
2023-02-17T15:31:50.310Z,99279.09
2023-02-17T15:34:20.276Z,99272.50
2023-02-17T15:36:47.574Z,99269.66
2023-02-17T15:39:18.557Z,99267.13
2023-02-17T15:41:46.973Z,99269.50
2023-02-17T15:44:17.264Z,99274.09
2023-02-17T15:46:46.044Z,99280.94
2023-02-17T15:49:13.728Z,99279.25
2023-02-17T15:51:40.434Z,99282.94
2023-02-17T15:54:07.125Z,99286.53
2023-02-17T15:56:46.918Z,99285.53
2023-02-17T15:59:22.688Z,99285.63
2023-02-17T16:01:50.654Z,99276.91
2023-02-17T16:04:17.927Z,99269.81
2023-02-17T16:06:44.957Z,99276.91
2023-02-17T16:09:11.952Z,99285.00
2023-02-17T16:11:54.169Z,99281.13
2023-02-17T16:14:35.634Z,99283.63
2023-02-17T16:17:04.620Z,99281.22
2023-02-17T16:19:31.609Z,99282.09
2023-02-17T16:21:58.276Z,99283.72
2023-02-17T16:24:25.169Z,99279.56
2023-02-17T16:26:51.913Z,99278.56
2023-02-17T16:29:21.880Z,99274.34
2023-02-17T16:31:49.024Z,99283.13
2023-02-17T16:34:22.946Z,99273.44
2023-02-17T16:36:56.554Z,99294.72
2023-02-17T16:39:23.266Z,99296.28
2023-02-17T16:41:49.944Z,99304.31
2023-02-17T16:44:18.773Z,99305.94
2023-02-17T16:46:56.235Z,99305.09
2023-02-17T16:49:32.271Z,99305.16
2023-02-17T16:52:00.825Z,99295.66
2023-02-17T16:54:27.731Z,99304.41
2023-02-17T16:56:55.812Z,99304.50
2023-02-17T16:59:24.131Z,99314.00
2023-02-17T17:01:53.025Z,99314.22
2023-02-17T17:04:21.389Z,99315.22
2023-02-17T17:06:51.601Z,99309.88
2023-02-17T17:09:21.369Z,99316.81
2023-02-17T17:11:48.709Z,99321.94
2023-02-17T17:14:15.838Z,99313.47
2023-02-17T17:16:49.488Z,99319.28
2023-02-17T17:19:16.555Z,99321.06
2023-02-17T17:21:43.208Z,99306.19
2023-02-17T17:24:10.019Z,99314.91
2023-02-17T17:26:40.102Z,99313.41
2023-02-17T17:29:08.421Z,99322.31
2023-02-17T17:31:35.293Z,99310.91
2023-02-17T17:34:01.990Z,99323.03
2023-02-17T17:36:35.275Z,99326.66
2023-02-17T17:39:06.382Z,99322.22
2023-02-17T17:41:33.101Z,99326.56
2023-02-17T17:43:59.868Z,99327.50
2023-02-17T17:46:29.207Z,99338.19
2023-02-17T17:48:58.681Z,99338.94
2023-02-17T17:51:27.264Z,99344.19
2023-02-17T17:53:54.308Z,99344.13
2023-02-17T17:56:34.544Z,99353.72
2023-02-17T17:59:03.459Z,99351.91
2023-02-17T18:01:30.251Z,99353.63
2023-02-17T18:03:58.044Z,99368.47
2023-02-17T18:06:29.592Z,99367.72
2023-02-17T18:09:00.117Z,99370.28
2023-02-17T18:11:27.322Z,99373.13
2023-02-17T18:13:57.966Z,99385.22
2023-02-17T18:16:26.374Z,99375.16
2023-02-17T18:18:54.566Z,99379.16
2023-02-17T18:21:21.429Z,99394.00
2023-02-17T18:23:48.498Z,99401.91
2023-02-17T18:26:15.404Z,99396.88
2023-02-17T18:28:42.362Z,99403.56
2023-02-17T18:31:11.076Z,99401.91
2023-02-17T18:33:38.285Z,99406.41
2023-02-17T18:36:08.613Z,99405.78
2023-02-17T18:38:35.759Z,99396.66
2023-02-17T18:41:02.665Z,99401.41
2023-02-17T18:43:29.317Z,99408.03
2023-02-17T18:45:56.082Z,99408.22
2023-02-17T18:48:22.942Z,99408.44
2023-02-17T18:50:50.744Z,99408.41
2023-02-17T18:53:18.135Z,99400.63
2023-02-17T18:55:44.865Z,99394.59
2023-02-17T18:58:12.492Z,99398.13
2023-02-17T19:00:39.274Z,99396.38
2023-02-17T19:03:06.146Z,99390.94
2023-02-17T19:05:32.814Z,99387.22
2023-02-17T19:07:59.591Z,99401.47
2023-02-17T19:10:26.366Z,99400.63
2023-02-17T19:12:53.112Z,99391.84
2023-02-17T19:15:20.922Z,99397.03
2023-02-17T19:17:48.677Z,99394.34
2023-02-17T19:20:16.994Z,99392.56
2023-02-17T19:22:43.754Z,99384.53
2023-02-17T19:25:10.698Z,99389.91
2023-02-17T19:27:40.599Z,99401.41
2023-02-17T19:30:09.325Z,99401.28
2023-02-17T19:32:36.240Z,99401.13
2023-02-17T19:35:03.633Z,99402.16
2023-02-17T19:37:30.822Z,99407.53
2023-02-17T19:39:57.493Z,99400.47
2023-02-17T19:42:24.195Z,99393.19
2023-02-17T19:44:50.964Z,99408.69
2023-02-17T19:47:17.648Z,99396.59
2023-02-17T19:49:44.343Z,99400.34
2023-02-17T19:52:11.160Z,99400.53
2023-02-17T19:54:37.875Z,99404.84
2023-02-17T19:57:04.635Z,99403.88
2023-02-17T19:59:33.400Z,99399.50
2023-02-17T20:02:00.207Z,99405.59
2023-02-17T20:04:26.994Z,99406.66
2023-02-17T20:06:54.132Z,99409.06
2023-02-17T20:09:22.916Z,99406.66
2023-02-17T20:11:53.079Z,99418.47
2023-02-17T20:14:20.675Z,99415.25
2023-02-17T20:16:48.484Z,99413.56
2023-02-17T20:19:15.796Z,99422.22
2023-02-17T20:21:44.764Z,99426.28
2023-02-17T20:24:14.945Z,99425.47
2023-02-17T20:26:46.008Z,99430.00
2023-02-17T20:29:13.245Z,99417.63
2023-02-17T20:31:41.573Z,99433.03
2023-02-17T20:34:17.588Z,99425.84
2023-02-17T20:36:44.244Z,99430.13
2023-02-17T20:39:10.902Z,99421.50
2023-02-17T20:41:37.560Z,99417.97
2023-02-17T20:44:05.070Z,99429.25
2023-02-17T20:46:31.888Z,99428.53
2023-02-17T20:48:58.678Z,99427.38
2023-02-17T20:51:25.366Z,99434.72
2023-02-17T20:53:52.324Z,99430.91
2023-02-17T20:56:22.728Z,99430.97
2023-02-17T20:58:50.868Z,99436.19
2023-02-17T21:01:18.413Z,99425.72
2023-02-17T21:03:45.062Z,99425.56
2023-02-17T21:06:22.844Z,99434.28
2023-02-17T21:08:55.474Z,99439.13
2023-02-17T21:11:23.031Z,99430.19
2023-02-17T21:13:50.465Z,99432.81
2023-02-17T21:16:22.678Z,99437.84
2023-02-17T21:18:49.384Z,99436.31
2023-02-17T21:21:16.412Z,99436.00
2023-02-17T21:23:43.664Z,99430.25
2023-02-17T21:26:11.289Z,99431.63
2023-02-17T21:28:38.354Z,99429.06
2023-02-17T21:31:05.269Z,99430.03
2023-02-17T21:33:32.572Z,99430.78
2023-02-17T21:36:05.516Z,99429.28
2023-02-17T21:38:32.283Z,99438.09
2023-02-17T21:41:08.108Z,99431.09
2023-02-17T21:43:53.483Z,99430.91
2023-02-17T21:46:21.888Z,99425.78
2023-02-17T21:48:51.117Z,99430.88
2023-02-17T21:51:18.794Z,99423.94
2023-02-17T21:53:45.513Z,99419.53
2023-02-17T21:56:12.496Z,99418.50
2023-02-17T21:58:39.275Z,99411.66
2023-02-17T22:01:06.909Z,99422.97
2023-02-17T22:03:33.949Z,99418.78
2023-02-17T22:06:00.692Z,99419.34
2023-02-17T22:08:27.431Z,99419.63
2023-02-17T22:10:54.133Z,99419.28
2023-02-17T22:13:20.785Z,99420.97
2023-02-17T22:15:56.819Z,99421.84
2023-02-17T22:18:23.583Z,99415.84
2023-02-17T22:20:50.310Z,99415.16
2023-02-17T22:23:17.113Z,99409.63
2023-02-17T22:25:43.783Z,99408.56
2023-02-17T22:28:12.002Z,99414.84
2023-02-17T22:30:40.087Z,99421.84
2023-02-17T22:33:06.819Z,99418.97
2023-02-17T22:35:33.903Z,99424.41
2023-02-17T22:38:00.524Z,99417.25
2023-02-17T22:40:27.249Z,99408.41
2023-02-17T22:42:53.907Z,99412.94
2023-02-17T22:45:20.534Z,99414.00
2023-02-17T22:47:47.291Z,99399.81
2023-02-17T22:50:14.151Z,99417.63
2023-02-17T22:52:40.843Z,99411.09
2023-02-17T22:55:07.747Z,99400.63
2023-02-17T22:57:34.367Z,99412.09
2023-02-17T23:00:01.076Z,99415.66
2023-02-17T23:02:27.705Z,99414.81
2023-02-17T23:04:54.400Z,99401.56
2023-02-17T23:07:22.265Z,99413.00
2023-02-17T23:09:48.903Z,99409.44
2023-02-17T23:12:15.600Z,99399.75
2023-02-17T23:14:42.255Z,99411.53
2023-02-17T23:17:12.094Z,99417.25
2023-02-17T23:19:40.337Z,99415.53
2023-02-17T23:22:16.009Z,99422.38
2023-02-17T23:24:47.352Z,99422.88
2023-02-17T23:27:14.600Z,99420.44
2023-02-17T23:29:41.877Z,99413.06
2023-02-17T23:32:08.904Z,99414.13
2023-02-17T23:34:35.801Z,99407.19
2023-02-17T23:37:02.579Z,99411.38
2023-02-17T23:39:29.231Z,99415.91
2023-02-17T23:41:55.929Z,99415.19
2023-02-17T23:44:22.583Z,99423.00
2023-02-17T23:46:49.332Z,99418.81
2023-02-17T23:49:17.504Z,99414.88
2023-02-17T23:51:46.655Z,99405.91
2023-02-17T23:54:13.903Z,99391.81
2023-02-17T23:56:40.575Z,99399.75
2023-02-17T23:59:07.327Z,99401.28
